| time (UTC) | temp F | wind direction | speed knots | gust knots | rain 1hr in | rain 24hr in | rain mn in | humidity % | barometer mb |
| 20260504000027 | 66 | 254 | 2.6 | 5.2 | 0.00 | 0.00 | 0.00 | 45 | 1005.1 |
| 20260503234508 | 67 | 295 | 3.5 | 8.7 | 0.00 | 0.00 | 0.00 | 43 | 1005.0 |
| 20260503233029 | 67 | 264 | 5.2 | 8.7 | 0.00 | 0.00 | 0.00 | 43 | 1005.1 |
| 20260503231531 | 67 | 266 | 6.1 | 11.3 | 0.00 | 0.00 | 0.00 | 43 | 1005.3 |
| 20260503230036 | 67 | 269 | 4.3 | 8.7 | 0.00 | 0.00 | 0.00 | 42 | 1005.4 |
| 20260503224526 | 67 | 225 | 3.5 | 9.6 | 0.00 | 0.00 | 0.00 | 42 | 1005.4 |
| 20260503223028 | 67 | 247 | 4.3 | 10.4 | 0.00 | 0.00 | 0.00 | 44 | 1005.5 |
| 20260503221515 | 66 | 255 | 4.3 | 10.4 | 0.00 | 0.00 | 0.00 | 45 | 1005.5 |
| 20260503220030 | 66 | 282 | 3.5 | 11.3 | 0.00 | 0.00 | 0.00 | 44 | 1005.7 |
| 20260503214538 | 65 | 245 | 4.3 | 11.3 | 0.00 | 0.00 | 0.00 | 46 | 1005.7 |
| 20260503213028 | 65 | 262 | 7.0 | 12.2 | 0.00 | 0.00 | 0.00 | 44 | 1005.9 |
| 20260503211511 | 65 | 174 | 4.3 | 11.3 | 0.00 | 0.00 | 0.00 | 45 | 1006.1 |
| 20260503210017 | 65 | 265 | 7.8 | 15.6 | 0.00 | 0.00 | 0.00 | 45 | 1006.1 |
| 20260503204520 | 65 | 289 | 5.2 | 13.9 | 0.00 | 0.00 | 0.00 | 44 | 1006.4 |
| 20260503203035 | 64 | 236 | 7.8 | 15.6 | 0.00 | 0.00 | 0.00 | 46 | 1006.5 |
| 20260503201528 | 63 | 241 | 1.7 | 13.0 | 0.00 | 0.00 | 0.00 | 50 | 1006.8 |
| 20260503200016 | 62 | 266 | 7.0 | 15.6 | 0.00 | 0.00 | 0.00 | 50 | 1007.1 |
| 20260503194529 | 62 | 257 | 7.0 | 14.8 | 0.00 | 0.00 | 0.00 | 49 | 1007.4 |
| 20260503193004 | 62 | 248 | 7.0 | 17.4 | 0.00 | 0.00 | 0.00 | 49 | 1007.6 |
| 20260503191549 | 63 | 284 | 9.6 | 14.8 | 0.00 | 0.00 | 0.00 | 46 | 1007.6 |
| 20260503190023 | 63 | 281 | 7.8 | 18.2 | 0.00 | 0.00 | 0.00 | 44 | 1007.6 |
| 20260503184515 | 62 | 300 | 3.5 | 18.2 | 0.00 | 0.00 | 0.00 | 49 | 1007.7 |
| 20260503183028 | 63 | 249 | 7.0 | 13.0 | 0.00 | 0.00 | 0.00 | 47 | 1008.0 |
| 20260503181507 | 62 | 248 | 3.5 | 10.4 | 0.00 | 0.00 | 0.00 | 48 | 1008.3 |
| 20260503180011 | 61 | 206 | 4.3 | 12.2 | 0.00 | 0.00 | 0.00 | 50 | 1008.6 |
| 20260503174513 | 60 | 255 | 7.0 | 13.9 | 0.00 | 0.00 | 0.00 | 51 | 1008.8 |
| 20260503173018 | 59 | 271 | 7.8 | 13.0 | 0.00 | 0.00 | 0.00 | 55 | 1009.1 |
| 20260503171523 | 58 | 236 | 6.1 | 13.9 | 0.00 | 0.00 | 0.00 | 56 | 1009.3 |
| 20260503081527 | 47 | 266 | 3.5 | 7.0 | 0.00 | 0.00 | 0.00 | 54 | 1012.9 |
| 20260503071513 | 47 | 251 | 2.6 | 7.0 | 0.00 | 0.00 | 0.00 | 52 | 1013.3 |
| 20260503054520 | 47 | 271 | 0.9 | 5.2 | 0.00 | 0.00 | 0.00 | 53 | 1014.0 |
| 20260503053029 | 46 | 269 | 0.9 | 4.3 | 0.00 | 0.00 | 0.00 | 53 | 1014.1 |
| 20260503051510 | 46 | 273 | 0.9 | 2.6 | 0.00 | 0.00 | 0.00 | 54 | 1014.2 |
| 20260503050012 | 47 | 293 | 0.0 | 3.5 | 0.00 | 0.00 | 0.00 | 54 | 1014.2 |
| 20260503044515 | 47 | 280 | 0.0 | 3.5 | 0.00 | 0.00 | 0.00 | 53 | 1014.3 |
| 20260503043024 | 47 | 250 | 0.0 | 4.3 | 0.00 | 0.00 | 0.00 | 53 | 1014.4 |
| 20260503041524 | 46 | 244 | 0.9 | 3.5 | 0.00 | 0.00 | 0.00 | 54 | 1014.5 |
| 20260503040010 | 46 | 254 | 0.0 | 1.7 | 0.00 | 0.00 | 0.00 | 57 | 1014.7 |
| 20260503034515 | 45 | 263 | 0.0 | 0.9 | 0.00 | 0.00 | 0.00 | 57 | 1014.7 |
| 20260503033020 | 45 | 269 | 0.0 | 0.9 | 0.00 | 0.00 | 0.00 | 59 | 1014.8 |
| 20260503031522 | 46 | 273 | 0.0 | 0.9 | 0.00 | 0.00 | 0.00 | 58 | 1014.9 |
| 20260503030029 | 44 | 262 | 0.0 | 0.9 | 0.00 | 0.00 | 0.00 | 59 | 1015.1 |
| 20260503024514 | 44 | 226 | 0.0 | 0.0 | 0.00 | 0.00 | 0.00 | 63 | 1015.2 |
| 20260503023013 | 44 | 226 | 0.0 | 0.0 | 0.00 | 0.00 | 0.00 | 62 | 1015.4 |
| 20260503021522 | 44 | 226 | 0.0 | 0.0 | 0.00 | 0.00 | 0.00 | 59 | 1015.3 |
| 20260503020028 | 45 | 226 | 0.0 | 0.0 | 0.00 | 0.00 | 0.00 | 59 | 1015.2 |
| 20260503014528 | 45 | 226 | 0.0 | 0.0 | 0.00 | 0.00 | 0.00 | 58 | 1015.0 |
| 20260503013037 | 46 | 226 | 0.0 | 0.0 | 0.00 | 0.00 | 0.00 | 55 | 1014.9 |
| 20260503011517 | 47 | 226 | 0.0 | 0.0 | 0.00 | 0.00 | 0.00 | 54 | 1014.8 |
| 20260503010023 | 49 | 226 | 0.0 | 0.0 | 0.00 | 0.00 | 0.00 | 51 | 1014.9 |
| 20260503004550 | 51 | 226 | 0.0 | 0.0 | 0.00 | 0.00 | 0.00 | 47 | 1015.0 |
| 20260503003042 | 53 | 264 | 0.0 | 1.7 | 0.00 | 0.00 | 0.00 | 42 | 1015.0 |
| 20260503001526 | 54 | 259 | 1.7 | 3.5 | 0.00 | 0.00 | 0.00 | 40 | 1015.1 |